Time;durP1;ratioP1;P1;durP2;ratioP2;P2;SDS_P1;SDS_P2;PMS_P1;PMS_P2;Temp;Humidity;BMP_temperature;BMP_pressure;BME280_temperature;BME280_humidity;BME280_pressure;Samples;Min_cycle;Max_cycle;Signal;HPM_P1;HPM_P2
2021/03/16 00:01:55;;;;;;;13.43;6.93;;;17.20;53.40;;;;;;5051934;28;20033;-73
2021/03/16 00:04:20;;;;;;;12.35;7.07;;;17.20;53.40;;;;;;5051600;28;20512;-73
2021/03/16 00:06:46;;;;;;;11.55;6.07;;;17.20;53.40;;;;;;5049923;28;20045;-73
2021/03/16 00:09:12;;;;;;;11.38;6.07;;;17.10;54.00;;;;;;5052058;28;20029;-73
2021/03/16 00:11:37;;;;;;;12.30;6.50;;;17.10;53.50;;;;;;5052610;28;20033;-74
2021/03/16 00:14:03;;;;;;;11.50;6.05;;;17.10;53.40;;;;;;5052521;28;20025;-73
2021/03/16 00:16:29;;;;;;;10.10;5.30;;;17.10;53.40;;;;;;5051410;28;20073;-73
2021/03/16 00:18:55;;;;;;;10.98;5.80;;;17.00;53.40;;;;;;5051654;28;20108;-74
2021/03/16 00:21:20;;;;;;;9.48;5.32;;;17.00;53.40;;;;;;5052655;28;20052;-76
2021/03/16 00:23:46;;;;;;;11.10;5.75;;;17.00;53.40;;;;;;5052324;28;20067;-74
2021/03/16 00:26:11;;;;;;;10.25;5.97;;;17.00;53.40;;;;;;5052732;28;20029;-74
2021/03/16 00:28:37;;;;;;;9.50;5.70;;;17.00;53.50;;;;;;5052273;28;20091;-73
2021/03/16 00:31:03;;;;;;;8.50;5.20;;;17.00;53.50;;;;;;5053013;28;20099;-73
2021/03/16 00:33:28;;;;;;;10.60;5.55;;;16.90;53.50;;;;;;5051398;28;20040;-73
2021/03/16 00:35:54;;;;;;;10.95;5.25;;;16.90;53.70;;;;;;5051143;28;20440;-73
2021/03/16 00:38:20;;;;;;;9.35;4.88;;;16.90;53.60;;;;;;5052955;28;20116;-75
2021/03/16 00:40:45;;;;;;;9.00;4.90;;;16.90;53.60;;;;;;5051874;28;20020;-73
2021/03/16 00:43:11;;;;;;;8.30;4.72;;;16.80;53.60;;;;;;5052175;28;20033;-75
2021/03/16 00:45:36;;;;;;;8.82;4.97;;;16.90;53.70;;;;;;5052697;28;20029;-74
2021/03/16 00:48:02;;;;;;;10.00;5.00;;;16.80;53.60;;;;;;5050915;28;20493;-74
2021/03/16 00:50:28;;;;;;;8.73;4.15;;;16.80;53.60;;;;;;5052681;28;20036;-73
2021/03/16 00:52:54;;;;;;;8.23;4.68;;;16.80;53.60;;;;;;5052190;28;20071;-72
2021/03/16 00:55:19;;;;;;;7.55;3.63;;;16.80;53.60;;;;;;5052223;28;20028;-73
2021/03/16 00:57:45;;;;;;;9.02;4.60;;;16.80;53.60;;;;;;5052424;28;20021;-73
2021/03/16 01:00:11;;;;;;;8.57;4.45;;;16.70;53.70;;;;;;5051789;28;20025;-75
2021/03/16 01:02:37;;;;;;;10.15;4.78;;;16.70;53.80;;;;;;5050855;28;20099;-75
2021/03/16 01:05:03;;;;;;;8.98;3.95;;;16.70;53.80;;;;;;5050347;28;20155;-76
2021/03/16 01:07:29;;;;;;;9.07;4.38;;;16.70;53.90;;;;;;5050579;28;20549;-72
2021/03/16 01:09:54;;;;;;;6.95;3.70;;;16.60;53.80;;;;;;5050198;28;20111;-72
2021/03/16 01:12:20;;;;;;;9.13;3.80;;;16.60;53.80;;;;;;5052169;28;20401;-72
2021/03/16 01:14:46;;;;;;;6.22;3.50;;;16.60;53.80;;;;;;5051015;28;20114;-72
2021/03/16 01:17:11;;;;;;;7.40;3.55;;;16.50;53.90;;;;;;5051059;28;20039;-73
2021/03/16 01:19:37;;;;;;;6.45;3.55;;;16.60;53.90;;;;;;5052153;28;20384;-73
2021/03/16 01:22:03;;;;;;;7.63;3.80;;;16.50;53.90;;;;;;5051187;28;20033;-73
2021/03/16 01:24:28;;;;;;;7.32;3.40;;;16.50;53.90;;;;;;5052163;28;20032;-73
2021/03/16 01:26:54;;;;;;;6.82;3.15;;;16.40;53.90;;;;;;5050871;28;20410;-75
2021/03/16 01:29:20;;;;;;;7.88;3.80;;;16.50;54.00;;;;;;5051826;28;20100;-72
2021/03/16 01:31:45;;;;;;;10.00;3.60;;;16.40;54.00;;;;;;5051027;28;20036;-72
2021/03/16 01:34:11;;;;;;;6.40;2.80;;;16.40;54.10;;;;;;5050103;28;20047;-73
2021/03/16 01:36:36;;;;;;;7.15;3.67;;;16.30;54.10;;;;;;5049760;28;20025;-71
2021/03/16 01:39:03;;;;;;;7.43;3.22;;;16.30;54.70;;;;;;5051760;28;20025;-72
2021/03/16 01:41:29;;;;;;;5.25;2.85;;;16.30;54.20;;;;;;5050148;28;20029;-74
2021/03/16 01:43:55;;;;;;;6.97;2.83;;;16.30;54.20;;;;;;5050738;28;20032;-72
2021/03/16 01:46:21;;;;;;;5.55;2.72;;;16.20;54.80;;;;;;5050028;28;20047;-72
2021/03/16 01:48:46;;;;;;;5.32;2.97;;;16.20;54.20;;;;;;5050804;28;20041;-73
2021/03/16 01:51:13;;;;;;;5.13;2.70;;;16.20;54.70;;;;;;5051036;28;20029;-74
2021/03/16 01:53:42;;;;;;;7.40;3.00;;;16.20;54.10;;;;;;5051238;28;20029;-72
2021/03/16 01:56:10;;;;;;;7.18;3.10;;;16.20;54.10;;;;;;5050487;28;20504;-72
2021/03/16 01:58:37;;;;;;;6.10;2.70;;;16.20;54.20;;;;;;5051791;28;20112;-73
2021/03/16 02:01:02;;;;;;;6.18;2.22;;;16.10;54.20;;;;;;5049265;28;20459;-72
2021/03/16 02:03:29;;;;;;;8.13;3.30;;;16.10;54.20;;;;;;5050388;28;20056;-73
2021/03/16 02:05:54;;;;;;;6.82;2.88;;;16.10;54.20;;;;;;5049185;28;20103;-73
2021/03/16 02:08:35;;;;;;;7.05;2.25;;;16.10;54.20;;;;;;5050709;28;20112;-72
2021/03/16 02:11:23;;;;;;;6.07;2.55;;;16.00;54.20;;;;;;5051465;28;20436;-73
2021/03/16 02:14:34;;;;;;;6.00;2.60;;;16.00;54.20;;;;;;5040403;28;20443;-75
2021/03/16 02:17:04;;;;;;;7.97;2.47;;;16.00;54.20;;;;;;5047099;28;20045;-72
2021/03/16 02:19:49;;;;;;;4.82;2.08;;;16.00;54.20;;;;;;5050636;28;20025;-73
2021/03/16 02:22:16;;;;;;;6.35;2.38;;;15.90;54.20;;;;;;5023346;28;20072;-72
2021/03/16 02:25:20;;;;;;;5.10;2.42;;;15.90;54.30;;;;;;5037517;28;20082;-73
2021/03/16 02:28:00;;;;;;;5.75;2.25;;;15.90;54.30;;;;;;5037560;28;20048;-72
2021/03/16 02:30:27;;;;;;;6.47;2.40;;;15.90;54.40;;;;;;5054602;28;20389;-72
2021/03/16 02:32:55;;;;;;;5.30;2.53;;;15.90;54.40;;;;;;5053903;28;20489;-72
2021/03/16 02:35:23;;;;;;;9.00;2.30;;;15.80;54.30;;;;;;5054014;28;20106;-72
2021/03/16 02:37:51;;;;;;;6.93;2.95;;;15.80;54.30;;;;;;5053791;28;20035;-72
2021/03/16 02:40:19;;;;;;;6.97;2.63;;;15.80;54.30;;;;;;5055260;28;20029;-72
2021/03/16 02:42:45;;;;;;;4.80;2.15;;;15.80;54.30;;;;;;5053576;28;20497;-73
2021/03/16 02:45:12;;;;;;;7.93;2.60;;;15.80;54.30;;;;;;5053698;28;20060;-73
2021/03/16 02:47:40;;;;;;;6.70;2.55;;;15.80;54.30;;;;;;5053053;28;20072;-73
2021/03/16 02:50:08;;;;;;;6.07;2.25;;;15.80;54.30;;;;;;5053868;28;20106;-72
2021/03/16 02:52:35;;;;;;;6.43;2.33;;;15.70;54.30;;;;;;5053614;28;20036;-73
2021/03/16 02:55:01;;;;;;;4.80;1.85;;;15.70;54.30;;;;;;5054066;28;20114;-72
2021/03/16 02:57:29;;;;;;;4.13;1.70;;;15.70;54.30;;;;;;5053998;28;20035;-72
2021/03/16 02:59:59;;;;;;;6.28;2.13;;;15.70;54.30;;;;;;5054811;28;20461;-72
2021/03/16 03:02:25;;;;;;;4.88;1.67;;;15.70;54.30;;;;;;5053635;28;20025;-72
2021/03/16 03:04:51;;;;;;;4.45;1.60;;;15.70;54.30;;;;;;5053836;28;20040;-72
2021/03/16 03:07:18;;;;;;;4.75;1.67;;;15.70;54.20;;;;;;5053342;28;20497;-72
2021/03/16 03:09:45;;;;;;;8.45;2.30;;;15.70;54.30;;;;;;5054601;28;20033;-72
2021/03/16 03:12:11;;;;;;;6.93;2.08;;;15.70;54.20;;;;;;5053543;28;20029;-72
2021/03/16 03:14:38;;;;;;;5.78;2.13;;;15.70;54.20;;;;;;5053485;28;20499;-73
2021/03/16 03:17:05;;;;;;;5.63;2.30;;;15.70;54.10;;;;;;5053129;28;20021;-72
2021/03/16 03:19:32;;;;;;;6.05;1.65;;;15.70;54.10;;;;;;5054153;28;20021;-72
2021/03/16 03:22:04;;;;;;;6.18;1.60;;;15.60;54.10;;;;;;5054068;28;20052;-72
2021/03/16 03:24:49;;;;;;;5.57;1.70;;;15.60;54.20;;;;;;5054032;28;20025;-71
2021/03/16 03:27:24;;;;;;;5.88;2.10;;;15.60;54.20;;;;;;5054190;28;20032;-72
2021/03/16 03:29:52;;;;;;;4.68;1.90;;;15.60;54.20;;;;;;5053878;28;20120;-71
2021/03/16 03:32:20;;;;;;;4.78;1.60;;;15.60;54.20;;;;;;5033982;28;20104;-72
2021/03/16 03:34:47;;;;;;;4.88;2.10;;;15.60;54.30;;;;;;5052617;28;20040;-73
2021/03/16 03:37:14;;;;;;;5.82;1.92;;;15.60;54.20;;;;;;5051540;28;20504;-73
2021/03/16 03:39:40;;;;;;;4.85;2.10;;;15.60;54.30;;;;;;5052332;28;20122;-72
2021/03/16 03:42:07;;;;;;;5.47;1.95;;;15.60;54.30;;;;;;5053178;28;20455;-73
2021/03/16 03:44:34;;;;;;;5.10;1.60;;;15.50;54.20;;;;;;5052965;28;20029;-73
2021/03/16 03:47:04;;;;;;;6.13;2.47;;;15.50;54.20;;;;;;5052868;28;20068;-73
2021/03/16 03:49:31;;;;;;;3.13;1.85;;;15.50;54.20;;;;;;5034453;28;20032;-72
2021/03/16 03:51:57;;;;;;;5.13;1.60;;;15.50;54.30;;;;;;5053800;28;20017;-74
2021/03/16 03:54:24;;;;;;;4.13;1.92;;;15.50;54.30;;;;;;5053279;28;20025;-72
2021/03/16 03:56:50;;;;;;;8.90;2.13;;;15.50;54.30;;;;;;5053776;28;20021;-72
2021/03/16 03:59:17;;;;;;;6.47;2.03;;;15.50;54.30;;;;;;5053031;28;20060;-73
2021/03/16 04:01:43;;;;;;;6.78;2.20;;;15.50;54.30;;;;;;5052536;28;20029;-72
2021/03/16 04:04:09;;;;;;;7.07;2.42;;;15.50;54.20;;;;;;5051197;28;20492;-72
2021/03/16 04:06:36;;;;;;;4.43;1.98;;;15.50;54.20;;;;;;5051808;28;20029;-73
2021/03/16 04:09:04;;;;;;;3.95;1.95;;;15.50;54.20;;;;;;5052642;28;20029;-73
2021/03/16 04:11:29;;;;;;;4.63;1.95;;;15.50;54.10;;;;;;5052874;28;20021;-72
2021/03/16 04:13:56;;;;;;;7.00;2.20;;;15.40;54.10;;;;;;5052473;28;20511;-72
2021/03/16 04:16:24;;;;;;;3.58;1.63;;;15.50;54.20;;;;;;5052289;28;20032;-72
2021/03/16 04:18:49;;;;;;;5.00;1.98;;;15.40;54.20;;;;;;5053004;28;20024;-73
2021/03/16 04:21:16;;;;;;;4.63;1.70;;;15.40;54.30;;;;;;5052558;28;20029;-73
2021/03/16 04:23:43;;;;;;;5.70;2.00;;;15.40;54.40;;;;;;5052316;28;20039;-73
2021/03/16 04:26:09;;;;;;;5.55;2.13;;;15.40;54.40;;;;;;5035386;28;20056;-73
2021/03/16 04:28:34;;;;;;;4.45;1.73;;;15.30;54.40;;;;;;5052130;28;20091;-73
2021/03/16 04:31:00;;;;;;;5.00;2.17;;;15.30;54.40;;;;;;5052047;28;20025;-73
2021/03/16 04:33:26;;;;;;;5.53;2.40;;;15.30;54.30;;;;;;5051434;28;20036;-72
2021/03/16 04:35:51;;;;;;;4.20;2.10;;;15.30;54.40;;;;;;5053246;28;20023;-72
2021/03/16 04:38:17;;;;;;;4.68;2.38;;;15.30;54.40;;;;;;5051795;28;20029;-73
2021/03/16 04:40:43;;;;;;;5.72;1.95;;;15.30;54.50;;;;;;5033831;28;20017;-73
2021/03/16 04:43:09;;;;;;;4.05;2.03;;;15.20;54.50;;;;;;5051988;28;20116;-72
2021/03/16 04:45:35;;;;;;;4.68;2.25;;;15.30;54.50;;;;;;5051731;28;20100;-72
2021/03/16 04:48:01;;;;;;;3.47;2.08;;;15.30;54.50;;;;;;5051588;28;20045;-72
2021/03/16 04:50:27;;;;;;;5.00;2.22;;;15.30;54.50;;;;;;5052845;28;20021;-73
2021/03/16 04:52:53;;;;;;;6.78;2.13;;;15.30;54.50;;;;;;5052024;28;20134;-72
2021/03/16 04:55:18;;;;;;;5.28;2.10;;;15.30;54.40;;;;;;5051670;28;20355;-72
2021/03/16 04:57:44;;;;;;;6.50;2.03;;;15.30;54.40;;;;;;5052334;28;20024;-72
2021/03/16 05:00:10;;;;;;;6.50;2.38;;;15.30;54.40;;;;;;5051670;28;20036;-72
2021/03/16 05:02:36;;;;;;;3.92;1.75;;;15.30;54.40;;;;;;5051930;28;20025;-72
2021/03/16 05:05:03;;;;;;;4.53;1.95;;;15.20;54.30;;;;;;5051701;28;20159;-72
2021/03/16 05:07:29;;;;;;;7.70;2.22;;;15.30;54.40;;;;;;5050554;28;20052;-72
2021/03/16 05:09:55;;;;;;;5.95;1.77;;;15.20;54.20;;;;;;5052493;28;20025;-73
2021/03/16 05:12:20;;;;;;;4.60;1.88;;;15.30;54.30;;;;;;5050631;28;20112;-72
2021/03/16 05:14:46;;;;;;;5.70;2.10;;;15.30;54.30;;;;;;5051167;28;20206;-72
2021/03/16 05:17:12;;;;;;;3.90;2.22;;;15.30;54.30;;;;;;5048687;28;20528;-72
2021/03/16 05:19:38;;;;;;;5.75;2.70;;;15.20;54.30;;;;;;5050162;28;20055;-72
2021/03/16 05:22:04;;;;;;;5.80;2.53;;;15.20;54.30;;;;;;5051092;28;20029;-72
2021/03/16 05:24:30;;;;;;;4.40;1.77;;;15.20;54.30;;;;;;5052043;28;20100;-72
2021/03/16 05:26:56;;;;;;;5.13;2.28;;;15.20;54.40;;;;;;5049589;28;20113;-73
2021/03/16 05:29:22;;;;;;;4.63;2.40;;;15.20;54.40;;;;;;5051108;28;20036;-72
2021/03/16 05:31:48;;;;;;;4.57;2.20;;;15.20;54.40;;;;;;5050633;28;20025;-72
2021/03/16 05:34:13;;;;;;;4.43;2.22;;;15.20;54.40;;;;;;5050354;28;20036;-72
2021/03/16 05:36:39;;;;;;;4.28;2.10;;;15.20;54.40;;;;;;5049832;28;20378;-72
2021/03/16 05:39:05;;;;;;;4.57;2.08;;;15.20;54.40;;;;;;5051276;28;20020;-73
2021/03/16 05:41:30;;;;;;;5.60;1.90;;;15.20;54.40;;;;;;5050324;28;20075;-72
2021/03/16 05:43:56;;;;;;;4.45;2.10;;;15.20;54.40;;;;;;5049938;28;20017;-73
2021/03/16 05:46:23;;;;;;;4.40;2.13;;;15.10;54.40;;;;;;5050564;28;20082;-75
2021/03/16 05:48:51;;;;;;;6.05;2.67;;;15.10;54.50;;;;;;5051654;28;20041;-74
2021/03/16 05:51:17;;;;;;;6.30;2.38;;;15.10;54.50;;;;;;5049935;28;20547;-73
2021/03/16 05:53:50;;;;;;;6.55;2.85;;;15.10;54.40;;;;;;5050737;28;20040;-74
2021/03/16 05:56:16;;;;;;;6.93;3.03;;;15.10;54.40;;;;;;5049352;28;20086;-73
2021/03/16 05:58:43;;;;;;;3.72;2.10;;;15.10;54.40;;;;;;5050786;28;20393;-73
2021/03/16 06:01:10;;;;;;;5.80;2.30;;;15.10;54.40;;;;;;5049644;28;20044;-73
2021/03/16 06:03:36;;;;;;;5.68;2.35;;;15.10;54.40;;;;;;5050607;28;20070;-72
2021/03/16 06:06:02;;;;;;;5.18;2.80;;;15.10;54.40;;;;;;5050546;28;20104;-72
2021/03/16 06:08:27;;;;;;;3.60;1.98;;;15.10;54.50;;;;;;5051672;28;20063;-73
2021/03/16 06:10:53;;;;;;;4.35;2.47;;;15.10;54.40;;;;;;5050193;28;20389;-72
2021/03/16 06:13:19;;;;;;;7.25;2.40;;;15.10;54.40;;;;;;5049883;28;20040;-73
2021/03/16 06:15:45;;;;;;;5.03;2.28;;;15.00;54.40;;;;;;5050719;28;20028;-72
2021/03/16 06:18:12;;;;;;;4.47;2.58;;;15.10;54.50;;;;;;5051489;28;20025;-72
2021/03/16 06:20:38;;;;;;;4.95;2.22;;;15.10;54.50;;;;;;5050714;28;20025;-73
2021/03/16 06:23:09;;;;;;;4.65;2.42;;;15.10;54.50;;;;;;5050789;28;20029;-72
2021/03/16 06:25:40;;;;;;;5.57;2.50;;;15.00;54.50;;;;;;5049430;28;20103;-73
2021/03/16 06:28:10;;;;;;;4.85;2.75;;;15.00;54.50;;;;;;5050220;28;20118;-72
2021/03/16 06:30:37;;;;;;;5.18;2.30;;;15.00;54.50;;;;;;5051285;28;20052;-72
2021/03/16 06:33:04;;;;;;;5.00;2.30;;;15.00;54.50;;;;;;5050224;28;20032;-72
2021/03/16 06:35:30;;;;;;;3.75;2.00;;;15.00;54.60;;;;;;5050528;28;20028;-72
2021/03/16 06:38:18;;;;;;;6.85;2.75;;;15.00;54.60;;;;;;5051034;28;20037;-72
2021/03/16 06:40:44;;;;;;;4.00;2.15;;;15.00;54.60;;;;;;5049263;28;20021;-73
2021/03/16 06:43:11;;;;;;;5.40;2.60;;;15.00;54.70;;;;;;5049588;28;20024;-72
2021/03/16 06:45:41;;;;;;;4.35;2.30;;;15.00;54.70;;;;;;5031891;28;20460;-72
2021/03/16 06:48:18;;;;;;;6.45;2.75;;;15.00;54.70;;;;;;5050839;28;20443;-74
2021/03/16 06:50:44;;;;;;;5.53;2.67;;;15.00;54.70;;;;;;5050159;28;20055;-72
2021/03/16 06:53:33;;;;;;;6.10;2.00;;;15.00;54.70;;;;;;5050989;28;20033;-71
2021/03/16 06:55:59;;;;;;;7.32;2.80;;;15.00;54.70;;;;;;5049264;28;20033;-72
2021/03/16 06:58:27;;;;;;;6.18;2.25;;;14.90;54.70;;;;;;5050926;28;20033;-72
2021/03/16 07:01:09;;;;;;;5.40;2.22;;;15.00;54.70;;;;;;5049836;28;20490;-72
2021/03/16 07:03:36;;;;;;;4.07;2.25;;;14.90;54.60;;;;;;5050578;28;20072;-74
2021/03/16 07:06:11;;;;;;;3.45;1.92;;;14.90;54.70;;;;;;5040487;28;20041;-73
2021/03/16 07:08:38;;;;;;;4.80;2.15;;;14.90;54.80;;;;;;5052363;28;20036;-73
2021/03/16 07:11:15;;;;;;;7.78;2.42;;;14.90;54.70;;;;;;5053766;28;20485;-73
2021/03/16 07:13:43;;;;;;;5.88;2.35;;;15.00;54.80;;;;;;5049621;28;20061;-73
2021/03/16 07:16:10;;;;;;;4.43;1.92;;;15.10;54.70;;;;;;5053473;28;20029;-72
2021/03/16 07:18:38;;;;;;;3.95;2.13;;;15.20;54.50;;;;;;5053546;28;20116;-72
2021/03/16 07:21:26;;;;;;;5.40;2.25;;;15.30;54.40;;;;;;5054237;28;20049;-72
2021/03/16 07:24:04;;;;;;;4.30;1.75;;;15.50;54.30;;;;;;5053201;28;20029;-71
2021/03/16 07:26:31;;;;;;;4.95;1.98;;;15.70;54.20;;;;;;5053337;28;20044;-73
2021/03/16 07:28:57;;;;;;;3.97;1.90;;;15.80;54.40;;;;;;5054319;28;20092;-73
2021/03/16 07:31:23;;;;;;;5.90;1.90;;;16.00;54.40;;;;;;5053289;28;20112;-73
2021/03/16 07:33:50;;;;;;;6.43;2.15;;;16.20;54.60;;;;;;5053325;28;20484;-72
2021/03/16 07:36:15;;;;;;;13.27;3.70;;;16.30;54.60;;;;;;5052454;28;20048;-71
2021/03/16 07:38:42;;;;;;;13.00;3.40;;;16.50;54.60;;;;;;5053074;28;20049;-72
2021/03/16 07:41:09;;;;;;;8.98;3.17;;;16.90;55.00;;;;;;5052871;28;20119;-72
2021/03/16 07:43:40;;;;;;;7.20;3.03;;;17.10;55.00;;;;;;5053258;28;20092;-72
2021/03/16 07:46:11;;;;;;;10.57;3.15;;;17.30;54.90;;;;;;5035522;28;20029;-73
2021/03/16 07:48:45;;;;;;;7.45;2.58;;;17.40;54.60;;;;;;5053478;28;20542;-73
2021/03/16 07:51:19;;;;;;;5.70;2.65;;;17.50;55.00;;;;;;5053395;28;20021;-72
2021/03/16 07:53:55;;;;;;;8.52;2.58;;;17.60;55.50;;;;;;5033992;28;20029;-73
2021/03/16 07:56:28;;;;;;;10.23;3.17;;;17.60;55.30;;;;;;5033755;28;20477;-75
2021/03/16 07:58:54;;;;;;;6.05;2.42;;;17.60;55.30;;;;;;5033569;28;20025;-73
2021/03/16 08:01:21;;;;;;;6.20;2.40;;;17.60;55.60;;;;;;5040549;28;20054;-75
2021/03/16 08:03:47;;;;;;;6.93;2.42;;;17.70;55.70;;;;;;5050026;28;20032;-75
2021/03/16 08:06:27;;;;;;;7.95;2.72;;;17.70;56.00;;;;;;5051208;28;20024;-75
2021/03/16 08:08:54;;;;;;;6.53;2.45;;;17.80;55.80;;;;;;5051259;28;20433;-74
2021/03/16 08:11:20;;;;;;;7.82;2.50;;;17.80;55.10;;;;;;5053095;28;20435;-75
2021/03/16 08:14:02;;;;;;;11.15;2.58;;;17.80;54.90;;;;;;5053273;28;20546;-74
2021/03/16 08:16:37;;;;;;;7.85;2.30;;;17.80;54.70;;;;;;5052859;28;20060;-74
2021/03/16 08:19:07;;;;;;;;;;;17.80;54.50;;;;;;5053345;28;20032;-74
2021/03/16 08:21:35;;;;;;;6.22;2.30;;;17.80;54.40;;;;;;5051982;28;19908;-74
2021/03/16 08:24:09;;;;;;;7.20;2.80;;;17.80;54.50;;;;;;5052836;28;20115;-74
2021/03/16 08:26:45;;;;;;;5.53;2.20;;;17.80;54.40;;;;;;5052983;28;20033;-75
2021/03/16 08:29:12;;;;;;;5.47;2.40;;;17.80;54.40;;;;;;5053212;28;20029;-74
2021/03/16 08:31:38;;;;;;;7.28;2.63;;;17.70;54.30;;;;;;5052659;28;20017;-75
2021/03/16 08:34:08;;;;;;;6.20;2.28;;;17.70;54.20;;;;;;5052904;28;20032;-75
2021/03/16 08:36:43;;;;;;;7.32;2.85;;;17.80;54.20;;;;;;5051785;28;20029;-73
2021/03/16 08:39:18;;;;;;;6.72;2.45;;;17.70;54.30;;;;;;5032924;28;20044;-73
2021/03/16 08:42:04;;;;;;;6.15;2.63;;;17.70;54.30;;;;;;5052519;28;20033;-75
2021/03/16 08:44:30;;;;;;;;;;;17.60;54.30;;;;;;5052798;28;20411;-73
2021/03/16 08:47:07;;;;;;;6.40;2.17;;;17.60;54.30;;;;;;5034402;28;19915;-76
2021/03/16 08:49:39;;;;;;;4.63;2.03;;;17.60;54.30;;;;;;5052495;28;20045;-75
2021/03/16 08:52:14;;;;;;;6.13;2.40;;;17.60;54.30;;;;;;5052735;28;20024;-73
2021/03/16 08:54:40;;;;;;;4.30;2.20;;;17.60;54.30;;;;;;5052666;28;20568;-73
2021/03/16 08:57:06;;;;;;;11.15;2.53;;;17.50;54.30;;;;;;5052693;28;20116;-74
2021/03/16 08:59:32;;;;;;;5.70;2.65;;;17.50;54.30;;;;;;5052107;28;20052;-76
2021/03/16 09:01:57;;;;;;;5.90;2.50;;;17.50;54.40;;;;;;5052024;28;20060;-75
2021/03/16 09:04:23;;;;;;;6.68;2.85;;;17.40;54.80;;;;;;5052961;28;20372;-77
2021/03/16 09:06:50;;;;;;;6.85;2.78;;;17.40;54.60;;;;;;5051254;28;20032;-76
2021/03/16 09:09:26;;;;;;;7.13;2.80;;;17.40;54.40;;;;;;5050100;28;20086;-77
2021/03/16 09:11:53;;;;;;;5.20;2.60;;;17.30;54.20;;;;;;5052415;28;20028;-77
2021/03/16 09:14:21;;;;;;;5.95;2.22;;;17.30;54.20;;;;;;5051747;28;20396;-77
2021/03/16 09:16:54;;;;;;;4.32;2.05;;;17.30;54.30;;;;;;5051169;28;20074;-77
2021/03/16 09:19:31;;;;;;;8.45;2.50;;;17.20;54.20;;;;;;5051944;28;20083;-77
2021/03/16 09:22:05;;;;;;;8.43;2.67;;;17.30;54.20;;;;;;5051598;28;20128;-76
2021/03/16 09:24:32;;;;;;;6.30;2.78;;;17.20;54.20;;;;;;5051937;28;20056;-76
2021/03/16 09:27:04;;;;;;;6.40;2.35;;;17.20;54.10;;;;;;5051323;28;20124;-74
2021/03/16 09:29:32;;;;;;;7.50;2.70;;;17.10;54.10;;;;;;5051359;28;20061;-74
2021/03/16 09:32:17;;;;;;;8.15;4.20;;;17.10;54.10;;;;;;5031293;28;20104;-73
2021/03/16 09:34:47;;;;;;;8.45;4.10;;;17.10;54.10;;;;;;5032222;28;20068;-73
2021/03/16 09:37:14;;;;;;;8.35;3.83;;;17.10;54.10;;;;;;5047465;28;20033;-73
2021/03/16 09:39:57;;;;;;;7.57;3.47;;;17.00;54.20;;;;;;5051643;28;20021;-74
2021/03/16 09:42:39;;;;;;;9.73;3.85;;;17.00;54.30;;;;;;5051584;28;20036;-74
2021/03/16 09:45:26;;;;;;;13.40;4.57;;;17.00;54.50;;;;;;5050850;28;20544;-76
2021/03/16 09:47:52;;;;;;;13.13;4.78;;;16.90;54.40;;;;;;5049936;28;20060;-76
2021/03/16 09:50:37;;;;;;;6.97;3.97;;;16.90;54.60;;;;;;5051408;28;20068;-76
2021/03/16 09:53:05;;;;;;;10.02;4.95;;;16.90;54.60;;;;;;5051853;28;20052;-74
2021/03/16 09:55:31;;;;;;;9.57;4.93;;;16.80;54.60;;;;;;5051109;28;20032;-74
2021/03/16 09:57:57;;;;;;;15.60;6.38;;;16.80;55.10;;;;;;5051441;28;20037;-75
2021/03/16 10:00:24;;;;;;;16.85;7.22;;;16.80;54.50;;;;;;5051197;28;20078;-73
2021/03/16 10:03:02;;;;;;;16.80;8.30;;;16.80;54.50;;;;;;5051079;28;20021;-74
2021/03/16 10:05:27;;;;;;;21.35;9.35;;;16.80;54.40;;;;;;5050996;28;20450;-74
2021/03/16 10:07:53;;;;;;;16.80;8.95;;;16.70;54.30;;;;;;5050654;28;20033;-73
2021/03/16 10:10:21;;;;;;;21.25;10.00;;;16.70;54.90;;;;;;5051183;28;20068;-74
2021/03/16 10:12:51;;;;;;;18.85;9.57;;;16.70;54.30;;;;;;5050884;28;20024;-73
2021/03/16 10:15:22;;;;;;;18.85;10.52;;;16.70;54.30;;;;;;5051101;28;20021;-73
2021/03/16 10:17:47;;;;;;;27.55;11.88;;;16.60;54.30;;;;;;5050928;28;20017;-74
2021/03/16 10:20:20;;;;;;;23.30;12.30;;;16.60;54.30;;;;;;5051758;28;20021;-74
2021/03/16 10:22:52;;;;;;;22.33;11.25;;;16.60;54.40;;;;;;5051250;28;20036;-73
2021/03/16 10:25:18;;;;;;;22.48;11.27;;;16.60;54.40;;;;;;5050973;28;20476;-73
2021/03/16 10:27:54;;;;;;;26.20;11.43;;;16.50;54.40;;;;;;5051104;28;20055;-73
2021/03/16 10:30:27;;;;;;;25.42;12.10;;;16.50;54.50;;;;;;5032557;28;20021;-73
2021/03/16 10:32:53;;;;;;;20.40;11.02;;;16.50;54.50;;;;;;5051308;28;20033;-73
2021/03/16 10:35:19;;;;;;;22.13;11.05;;;16.50;54.60;;;;;;5051036;28;20477;-74
2021/03/16 10:37:45;;;;;;;21.23;10.02;;;16.50;54.60;;;;;;5050153;28;20033;-73
2021/03/16 10:40:11;;;;;;;21.52;10.35;;;16.40;54.50;;;;;;5050416;28;20021;-74
2021/03/16 10:42:37;;;;;;;20.67;11.00;;;16.40;54.60;;;;;;5051507;28;20033;-75
2021/03/16 10:45:03;;;;;;;20.40;11.15;;;16.40;54.60;;;;;;5054649;28;20055;-75
2021/03/16 10:47:28;;;;;;;20.08;10.77;;;16.40;54.70;;;;;;5053967;28;20040;-75
2021/03/16 10:49:54;;;;;;;20.13;10.32;;;16.40;54.70;;;;;;5054554;28;20546;-74
2021/03/16 10:52:20;;;;;;;18.45;10.25;;;16.40;54.80;;;;;;5054633;28;20033;-74
2021/03/16 10:54:47;;;;;;;17.67;9.18;;;16.30;54.70;;;;;;5053569;28;20139;-73
2021/03/16 10:57:13;;;;;;;21.65;9.32;;;16.30;54.70;;;;;;5036226;28;20516;-74
2021/03/16 10:59:39;;;;;;;18.92;8.88;;;16.30;54.80;;;;;;5054579;28;20021;-74
2021/03/16 11:02:05;;;;;;;19.15;9.38;;;16.30;54.80;;;;;;5052567;28;20052;-74
2021/03/16 11:04:31;;;;;;;20.10;9.38;;;16.30;54.80;;;;;;5052512;28;20493;-75
2021/03/16 11:06:56;;;;;;;15.80;8.23;;;16.30;54.80;;;;;;5054246;28;20075;-75
2021/03/16 11:09:22;;;;;;;15.60;8.13;;;16.30;54.90;;;;;;5053860;28;20564;-75
2021/03/16 11:11:47;;;;;;;18.83;8.88;;;16.20;54.90;;;;;;5054528;28;20055;-75
2021/03/16 11:14:14;;;;;;;16.65;9.15;;;16.20;55.00;;;;;;5054641;28;20040;-74
2021/03/16 11:16:39;;;;;;;15.15;8.23;;;16.20;55.30;;;;;;5054313;28;20029;-74
2021/03/16 11:19:05;;;;;;;29.77;18.95;;;16.20;55.40;;;;;;5036364;28;20029;-75
2021/03/16 11:21:31;;;;;;;29.45;22.58;;;16.20;55.30;;;;;;5054429;28;20025;-74
2021/03/16 11:23:58;;;;;;;106.60;66.70;;;16.20;55.30;;;;;;5053800;28;20025;-72
2021/03/16 11:26:24;;;;;;;95.15;63.20;;;16.40;55.30;;;;;;5052971;28;20032;-74
2021/03/16 11:28:50;;;;;;;79.53;53.33;;;16.40;55.20;;;;;;5053570;28;20033;-75
2021/03/16 11:31:15;;;;;;;69.25;48.35;;;16.60;55.20;;;;;;5054562;28;20504;-72
2021/03/16 11:33:41;;;;;;;74.70;47.20;;;16.70;55.10;;;;;;5052936;28;20389;-73
2021/03/16 11:36:07;;;;;;;75.40;46.90;;;16.80;55.30;;;;;;5053102;28;20142;-73
2021/03/16 11:38:33;;;;;;;68.53;42.63;;;16.90;56.00;;;;;;5053835;28;20388;-75
2021/03/16 11:40:58;;;;;;;62.28;37.90;;;17.10;56.30;;;;;;5054121;28;20028;-76
2021/03/16 11:43:24;;;;;;;60.25;37.92;;;17.30;56.10;;;;;;5036159;28;20079;-79
2021/03/16 11:45:49;;;;;;;65.63;36.53;;;17.60;55.90;;;;;;5053859;28;20013;-83
2021/03/16 11:48:15;;;;;;;56.80;34.35;;;17.60;56.30;;;;;;5054126;28;20045;-82
2021/03/16 11:50:41;;;;;;;50.63;31.33;;;17.70;56.40;;;;;;5035754;28;20463;-81
2021/03/16 11:53:07;;;;;;;46.85;30.00;;;17.80;56.40;;;;;;5050298;28;20029;-85
2021/03/16 11:55:34;;;;;;;48.13;27.80;;;17.90;56.30;;;;;;5055558;28;20021;-78
2021/03/16 11:58:00;;;;;;;41.25;25.50;;;17.90;56.00;;;;;;5056496;28;20021;-75
2021/03/16 12:00:26;;;;;;;36.65;23.08;;;17.90;56.10;;;;;;5058704;28;20067;-77
2021/03/16 12:02:52;;;;;;;34.97;20.58;;;18.00;56.10;;;;;;5056479;28;20017;-74
2021/03/16 12:05:17;;;;;;;29.55;18.60;;;18.10;56.10;;;;;;5052067;28;20454;-75
2021/03/16 12:07:43;;;;;;;31.88;16.85;;;18.30;56.30;;;;;;5051890;28;20044;-76
2021/03/16 12:10:10;;;;;;;27.92;16.33;;;18.30;56.40;;;;;;5052062;28;20392;-74
2021/03/16 12:12:36;;;;;;;30.48;15.15;;;18.40;56.80;;;;;;5034192;28;20043;-75
2021/03/16 12:15:13;;;;;;;25.30;15.45;;;18.60;57.00;;;;;;5051617;28;20033;-76
2021/03/16 12:17:39;;;;;;;22.98;13.30;;;18.70;57.20;;;;;;5048859;28;20607;-74
2021/03/16 12:20:07;;;;;;;22.92;11.77;;;18.70;57.00;;;;;;5051617;28;20064;-75
2021/03/16 12:22:33;;;;;;;21.75;12.32;;;18.90;56.90;;;;;;5051663;28;20492;-74
2021/03/16 12:25:02;;;;;;;21.90;12.20;;;18.90;56.60;;;;;;5051597;28;20024;-74
2021/03/16 12:27:28;;;;;;;19.70;11.48;;;19.00;56.40;;;;;;5052140;28;20040;-79
2021/03/16 12:29:57;;;;;;;21.73;11.75;;;19.00;56.30;;;;;;5052025;28;20017;-80
2021/03/16 12:32:23;;;;;;;18.63;11.23;;;19.10;56.20;;;;;;5051041;28;20032;-83
2021/03/16 12:34:50;;;;;;;20.60;11.90;;;19.10;56.00;;;;;;5051840;28;20025;-85
2021/03/16 12:37:17;;;;;;;19.50;11.20;;;19.10;55.80;;;;;;5052164;28;20033;-79
2021/03/16 12:39:43;;;;;;;14.50;9.40;;;19.10;55.60;;;;;;5052862;28;20021;-78
2021/03/16 12:42:08;;;;;;;16.38;10.00;;;19.20;55.30;;;;;;5052756;28;20031;-78
2021/03/16 12:44:34;;;;;;;15.30;8.73;;;19.40;54.80;;;;;;5052637;28;20017;-80
2021/03/16 12:47:01;;;;;;;15.82;9.38;;;19.30;54.80;;;;;;5052621;28;20043;-77
2021/03/16 12:49:27;;;;;;;13.85;8.70;;;19.40;54.70;;;;;;5052522;28;20401;-78